sensor_id;sensor_type;location;lat;lon;timestamp;temperature;humidity
20155;DHT22;10238;49.556;10.956;2022-09-03T00:01:22;12.50;99.90
20155;DHT22;10238;49.556;10.956;2022-09-03T00:04:23;12.40;99.90
20155;DHT22;10238;49.556;10.956;2022-09-03T00:07:19;12.40;99.90
20155;DHT22;10238;49.556;10.956;2022-09-03T00:10:20;12.30;99.90
20155;DHT22;10238;49.556;10.956;2022-09-03T00:13:16;12.30;99.90
20155;DHT22;10238;49.556;10.956;2022-09-03T00:16:14;12.30;99.90
20155;DHT22;10238;49.556;10.956;2022-09-03T00:19:08;12.20;99.90
20155;DHT22;10238;49.556;10.956;2022-09-03T00:22:07;12.10;99.90
20155;DHT22;10238;49.556;10.956;2022-09-03T00:25:08;12.10;99.90
20155;DHT22;10238;49.556;10.956;2022-09-03T00:28:03;12.10;99.90
20155;DHT22;10238;49.556;10.956;2022-09-03T00:31:06;12.00;99.90
20155;DHT22;10238;49.556;10.956;2022-09-03T00:34:10;12.00;99.90
20155;DHT22;10238;49.556;10.956;2022-09-03T00:37:06;11.90;99.90
20155;DHT22;10238;49.556;10.956;2022-09-03T00:40:04;11.90;99.90
20155;DHT22;10238;49.556;10.956;2022-09-03T00:43:08;11.80;99.90
20155;DHT22;10238;49.556;10.956;2022-09-03T00:46:12;11.80;99.90
20155;DHT22;10238;49.556;10.956;2022-09-03T00:49:24;11.80;99.90
20155;DHT22;10238;49.556;10.956;2022-09-03T00:52:37;11.70;99.90
20155;DHT22;10238;49.556;10.956;2022-09-03T00:55:41;11.70;99.90
20155;DHT22;10238;49.556;10.956;2022-09-03T00:58:49;11.70;99.90
20155;DHT22;10238;49.556;10.956;2022-09-03T01:02:02;11.60;99.90
20155;DHT22;10238;49.556;10.956;2022-09-03T01:05:05;11.60;99.90
20155;DHT22;10238;49.556;10.956;2022-09-03T01:08:06;11.50;99.90
20155;DHT22;10238;49.556;10.956;2022-09-03T01:11:24;11.50;99.90
20155;DHT22;10238;49.556;10.956;2022-09-03T01:14:30;11.40;99.90
20155;DHT22;10238;49.556;10.956;2022-09-03T01:17:39;11.40;99.90
20155;DHT22;10238;49.556;10.956;2022-09-03T01:20:51;11.40;99.90
20155;DHT22;10238;49.556;10.956;2022-09-03T01:27:41;11.20;99.90
20155;DHT22;10238;49.556;10.956;2022-09-03T01:30:42;11.20;99.90
20155;DHT22;10238;49.556;10.956;2022-09-03T01:33:39;11.10;99.90
20155;DHT22;10238;49.556;10.956;2022-09-03T01:36:44;11.10;99.90
20155;DHT22;10238;49.556;10.956;2022-09-03T01:39:48;11.10;99.90
20155;DHT22;10238;49.556;10.956;2022-09-03T01:42:56;11.00;99.90
20155;DHT22;10238;49.556;10.956;2022-09-03T01:46:01;11.00;99.90
20155;DHT22;10238;49.556;10.956;2022-09-03T01:49:01;11.00;99.90
20155;DHT22;10238;49.556;10.956;2022-09-03T01:52:00;10.90;99.90
20155;DHT22;10238;49.556;10.956;2022-09-03T01:55:03;10.90;99.90
20155;DHT22;10238;49.556;10.956;2022-09-03T01:58:04;10.80;99.90
20155;DHT22;10238;49.556;10.956;2022-09-03T02:01:02;10.80;99.90
20155;DHT22;10238;49.556;10.956;2022-09-03T02:03:56;10.80;99.90
20155;DHT22;10238;49.556;10.956;2022-09-03T02:06:49;10.80;99.90
20155;DHT22;10238;49.556;10.956;2022-09-03T02:09:40;10.70;99.90
20155;DHT22;10238;49.556;10.956;2022-09-03T02:12:31;10.70;99.90
20155;DHT22;10238;49.556;10.956;2022-09-03T02:15:25;10.70;99.90
20155;DHT22;10238;49.556;10.956;2022-09-03T02:18:20;10.70;99.90
20155;DHT22;10238;49.556;10.956;2022-09-03T02:21:14;10.60;99.90
20155;DHT22;10238;49.556;10.956;2022-09-03T02:24:07;10.60;99.90
20155;DHT22;10238;49.556;10.956;2022-09-03T02:26:58;10.60;99.90
20155;DHT22;10238;49.556;10.956;2022-09-03T02:29:48;10.50;99.90
20155;DHT22;10238;49.556;10.956;2022-09-03T02:32:37;10.50;99.90
20155;DHT22;10238;49.556;10.956;2022-09-03T02:35:26;10.50;99.90
20155;DHT22;10238;49.556;10.956;2022-09-03T02:38:18;10.40;99.90
20155;DHT22;10238;49.556;10.956;2022-09-03T02:41:09;10.40;99.90
20155;DHT22;10238;49.556;10.956;2022-09-03T02:44:06;10.40;99.90
20155;DHT22;10238;49.556;10.956;2022-09-03T02:47:02;10.40;99.90
20155;DHT22;10238;49.556;10.956;2022-09-03T02:49:53;10.30;99.90
20155;DHT22;10238;49.556;10.956;2022-09-03T02:52:42;10.30;99.90
20155;DHT22;10238;49.556;10.956;2022-09-03T02:55:31;10.30;99.90
20155;DHT22;10238;49.556;10.956;2022-09-03T02:58:21;10.30;99.90
20155;DHT22;10238;49.556;10.956;2022-09-03T03:01:11;10.30;99.90
20155;DHT22;10238;49.556;10.956;2022-09-03T03:04:10;10.30;99.90
20155;DHT22;10238;49.556;10.956;2022-09-03T03:06:59;10.20;99.90
20155;DHT22;10238;49.556;10.956;2022-09-03T03:09:49;10.20;99.90
20155;DHT22;10238;49.556;10.956;2022-09-03T03:12:38;10.20;99.90
20155;DHT22;10238;49.556;10.956;2022-09-03T03:15:27;10.20;99.90
20155;DHT22;10238;49.556;10.956;2022-09-03T03:18:18;10.20;99.90
20155;DHT22;10238;49.556;10.956;2022-09-03T03:21:08;10.10;99.90
20155;DHT22;10238;49.556;10.956;2022-09-03T03:24:00;10.20;99.90
20155;DHT22;10238;49.556;10.956;2022-09-03T03:26:54;10.20;99.90
20155;DHT22;10238;49.556;10.956;2022-09-03T03:29:45;10.30;99.90
20155;DHT22;10238;49.556;10.956;2022-09-03T03:32:35;10.30;99.90
20155;DHT22;10238;49.556;10.956;2022-09-03T03:35:26;10.40;99.90
20155;DHT22;10238;49.556;10.956;2022-09-03T03:38:15;10.40;99.90
20155;DHT22;10238;49.556;10.956;2022-09-03T03:41:08;10.50;99.90
20155;DHT22;10238;49.556;10.956;2022-09-03T03:44:00;10.50;99.90
20155;DHT22;10238;49.556;10.956;2022-09-03T03:46:50;10.60;99.90
20155;DHT22;10238;49.556;10.956;2022-09-03T03:49:40;10.60;99.90
20155;DHT22;10238;49.556;10.956;2022-09-03T03:52:30;10.60;99.90
20155;DHT22;10238;49.556;10.956;2022-09-03T03:55:19;10.60;99.90
20155;DHT22;10238;49.556;10.956;2022-09-03T03:58:13;10.60;99.90
20155;DHT22;10238;49.556;10.956;2022-09-03T04:01:04;10.60;99.90
20155;DHT22;10238;49.556;10.956;2022-09-03T04:03:57;10.70;99.90
20155;DHT22;10238;49.556;10.956;2022-09-03T04:06:47;10.60;99.90
20155;DHT22;10238;49.556;10.956;2022-09-03T04:09:37;10.60;99.90
20155;DHT22;10238;49.556;10.956;2022-09-03T04:12:27;10.60;99.90
20155;DHT22;10238;49.556;10.956;2022-09-03T04:15:16;10.60;99.90
20155;DHT22;10238;49.556;10.956;2022-09-03T04:18:05;10.50;99.90
20155;DHT22;10238;49.556;10.956;2022-09-03T04:20:59;10.60;99.90
20155;DHT22;10238;49.556;10.956;2022-09-03T04:23:51;10.60;99.90
20155;DHT22;10238;49.556;10.956;2022-09-03T04:26:43;10.60;99.90
20155;DHT22;10238;49.556;10.956;2022-09-03T04:29:34;10.50;99.90
20155;DHT22;10238;49.556;10.956;2022-09-03T04:32:24;10.50;99.90
20155;DHT22;10238;49.556;10.956;2022-09-03T04:35:30;10.50;99.90
20155;DHT22;10238;49.556;10.956;2022-09-03T04:38:23;10.50;99.90
20155;DHT22;10238;49.556;10.956;2022-09-03T04:41:14;10.40;99.90
20155;DHT22;10238;49.556;10.956;2022-09-03T04:44:06;10.40;99.90
20155;DHT22;10238;49.556;10.956;2022-09-03T04:46:55;10.40;99.90
20155;DHT22;10238;49.556;10.956;2022-09-03T04:49:44;10.40;99.90
20155;DHT22;10238;49.556;10.956;2022-09-03T04:52:33;10.30;99.90
20155;DHT22;10238;49.556;10.956;2022-09-03T04:55:23;10.30;99.90
20155;DHT22;10238;49.556;10.956;2022-09-03T04:58:12;10.30;99.90
20155;DHT22;10238;49.556;10.956;2022-09-03T05:01:08;10.40;99.90
20155;DHT22;10238;49.556;10.956;2022-09-03T05:03:58;10.30;99.90
20155;DHT22;10238;49.556;10.956;2022-09-03T05:06:48;10.40;99.90
20155;DHT22;10238;49.556;10.956;2022-09-03T05:09:38;10.40;99.90
20155;DHT22;10238;49.556;10.956;2022-09-03T05:12:27;10.40;99.90
20155;DHT22;10238;49.556;10.956;2022-09-03T05:15:18;10.50;99.90
20155;DHT22;10238;49.556;10.956;2022-09-03T05:18:08;10.50;99.90
20155;DHT22;10238;49.556;10.956;2022-09-03T05:20:58;10.50;99.90
20155;DHT22;10238;49.556;10.956;2022-09-03T05:23:49;10.50;99.90
20155;DHT22;10238;49.556;10.956;2022-09-03T05:26:39;10.60;99.90
20155;DHT22;10238;49.556;10.956;2022-09-03T05:29:28;10.60;99.90
20155;DHT22;10238;49.556;10.956;2022-09-03T05:32:17;10.70;99.90
20155;DHT22;10238;49.556;10.956;2022-09-03T05:35:09;10.70;99.90
20155;DHT22;10238;49.556;10.956;2022-09-03T05:37:58;10.80;99.90
20155;DHT22;10238;49.556;10.956;2022-09-03T05:40:48;10.80;99.90
20155;DHT22;10238;49.556;10.956;2022-09-03T05:43:38;10.90;99.90
20155;DHT22;10238;49.556;10.956;2022-09-03T05:46:31;11.00;99.90
20155;DHT22;10238;49.556;10.956;2022-09-03T05:49:24;11.10;99.90
20155;DHT22;10238;49.556;10.956;2022-09-03T05:52:14;11.20;99.90
20155;DHT22;10238;49.556;10.956;2022-09-03T05:55:06;11.30;99.90
20155;DHT22;10238;49.556;10.956;2022-09-03T05:58:00;11.50;99.90
20155;DHT22;10238;49.556;10.956;2022-09-03T06:00:49;11.60;99.90
20155;DHT22;10238;49.556;10.956;2022-09-03T06:03:38;11.60;99.90
20155;DHT22;10238;49.556;10.956;2022-09-03T06:06:29;11.70;99.90
20155;DHT22;10238;49.556;10.956;2022-09-03T06:09:21;11.80;99.90
20155;DHT22;10238;49.556;10.956;2022-09-03T06:12:11;11.90;99.90
20155;DHT22;10238;49.556;10.956;2022-09-03T06:15:00;11.90;99.90
20155;DHT22;10238;49.556;10.956;2022-09-03T06:17:49;12.00;99.90
20155;DHT22;10238;49.556;10.956;2022-09-03T06:20:38;12.10;99.90
20155;DHT22;10238;49.556;10.956;2022-09-03T06:23:28;12.20;99.90
20155;DHT22;10238;49.556;10.956;2022-09-03T06:26:20;12.40;99.90
20155;DHT22;10238;49.556;10.956;2022-09-03T06:29:09;12.60;99.90
20155;DHT22;10238;49.556;10.956;2022-09-03T06:31:59;12.70;99.90
20155;DHT22;10238;49.556;10.956;2022-09-03T06:34:48;12.90;99.90
20155;DHT22;10238;49.556;10.956;2022-09-03T06:37:38;13.00;99.90
20155;DHT22;10238;49.556;10.956;2022-09-03T06:40:27;13.20;99.90
20155;DHT22;10238;49.556;10.956;2022-09-03T06:43:18;13.30;99.90
20155;DHT22;10238;49.556;10.956;2022-09-03T06:46:09;13.50;99.90
20155;DHT22;10238;49.556;10.956;2022-09-03T06:49:00;13.60;99.90
20155;DHT22;10238;49.556;10.956;2022-09-03T06:51:49;13.70;99.90
20155;DHT22;10238;49.556;10.956;2022-09-03T06:54:38;13.80;99.90
20155;DHT22;10238;49.556;10.956;2022-09-03T06:57:28;13.90;99.90
20155;DHT22;10238;49.556;10.956;2022-09-03T07:00:18;14.10;99.90
20155;DHT22;10238;49.556;10.956;2022-09-03T07:03:08;14.20;99.90
20155;DHT22;10238;49.556;10.956;2022-09-03T07:05:59;14.30;99.90
20155;DHT22;10238;49.556;10.956;2022-09-03T07:08:49;14.60;99.90
20155;DHT22;10238;49.556;10.956;2022-09-03T07:11:38;14.80;99.90
20155;DHT22;10238;49.556;10.956;2022-09-03T07:14:33;14.90;99.90
20155;DHT22;10238;49.556;10.956;2022-09-03T07:17:24;15.10;99.90
20155;DHT22;10238;49.556;10.956;2022-09-03T07:20:13;15.30;99.90
20155;DHT22;10238;49.556;10.956;2022-09-03T07:23:02;15.60;99.90
20155;DHT22;10238;49.556;10.956;2022-09-03T07:25:53;15.80;99.90
20155;DHT22;10238;49.556;10.956;2022-09-03T07:28:43;16.00;99.90
20155;DHT22;10238;49.556;10.956;2022-09-03T07:31:36;16.10;99.90
20155;DHT22;10238;49.556;10.956;2022-09-03T07:34:29;16.20;99.90
20155;DHT22;10238;49.556;10.956;2022-09-03T07:37:18;16.40;99.90
20155;DHT22;10238;49.556;10.956;2022-09-03T07:40:08;16.50;99.90
20155;DHT22;10238;49.556;10.956;2022-09-03T07:42:58;16.60;99.90
20155;DHT22;10238;49.556;10.956;2022-09-03T07:45:50;16.80;99.90
20155;DHT22;10238;49.556;10.956;2022-09-03T07:48:39;17.00;99.90
20155;DHT22;10238;49.556;10.956;2022-09-03T07:51:31;17.10;99.90
20155;DHT22;10238;49.556;10.956;2022-09-03T07:54:24;17.20;99.90
20155;DHT22;10238;49.556;10.956;2022-09-03T07:57:14;17.30;99.90
20155;DHT22;10238;49.556;10.956;2022-09-03T08:00:04;17.40;99.90
20155;DHT22;10238;49.556;10.956;2022-09-03T08:02:54;17.40;99.90
20155;DHT22;10238;49.556;10.956;2022-09-03T08:05:44;17.60;99.90
20155;DHT22;10238;49.556;10.956;2022-09-03T08:08:36;17.70;99.90
20155;DHT22;10238;49.556;10.956;2022-09-03T08:11:27;17.90;99.90
20155;DHT22;10238;49.556;10.956;2022-09-03T08:14:18;18.10;99.90
20155;DHT22;10238;49.556;10.956;2022-09-03T08:17:07;18.30;99.90
20155;DHT22;10238;49.556;10.956;2022-09-03T08:19:56;18.50;99.90
20155;DHT22;10238;49.556;10.956;2022-09-03T08:22:45;18.80;99.90
20155;DHT22;10238;49.556;10.956;2022-09-03T08:25:36;19.00;99.90
20155;DHT22;10238;49.556;10.956;2022-09-03T08:28:25;19.10;99.90
20155;DHT22;10238;49.556;10.956;2022-09-03T08:31:16;19.30;99.90
20155;DHT22;10238;49.556;10.956;2022-09-03T08:34:06;19.60;99.90
20155;DHT22;10238;49.556;10.956;2022-09-03T08:36:58;20.10;99.90
20155;DHT22;10238;49.556;10.956;2022-09-03T08:39:48;20.50;99.90
20155;DHT22;10238;49.556;10.956;2022-09-03T08:42:52;20.50;99.90
20155;DHT22;10238;49.556;10.956;2022-09-03T08:45:53;20.60;99.90
20155;DHT22;10238;49.556;10.956;2022-09-03T08:48:43;20.80;99.90
20155;DHT22;10238;49.556;10.956;2022-09-03T08:51:35;20.80;99.20
20155;DHT22;10238;49.556;10.956;2022-09-03T08:54:30;20.80;98.80
20155;DHT22;10238;49.556;10.956;2022-09-03T08:57:20;21.00;99.90
20155;DHT22;10238;49.556;10.956;2022-09-03T09:00:12;21.10;98.70
20155;DHT22;10238;49.556;10.956;2022-09-03T09:03:13;21.20;99.30
20155;DHT22;10238;49.556;10.956;2022-09-03T09:06:22;21.40;99.90
20155;DHT22;10238;49.556;10.956;2022-09-03T09:09:24;21.80;98.20
20155;DHT22;10238;49.556;10.956;2022-09-03T09:12:28;22.10;98.80
20155;DHT22;10238;49.556;10.956;2022-09-03T09:15:42;22.40;98.00
20155;DHT22;10238;49.556;10.956;2022-09-03T09:18:47;22.70;97.50
20155;DHT22;10238;49.556;10.956;2022-09-03T09:21:53;22.70;96.60
20155;DHT22;10238;49.556;10.956;2022-09-03T09:24:47;22.70;97.80
20155;DHT22;10238;49.556;10.956;2022-09-03T09:27:47;22.90;97.90
20155;DHT22;10238;49.556;10.956;2022-09-03T09:30:41;23.00;96.00
20155;DHT22;10238;49.556;10.956;2022-09-03T09:33:34;23.10;97.10
20155;DHT22;10238;49.556;10.956;2022-09-03T09:36:24;23.50;97.00
20155;DHT22;10238;49.556;10.956;2022-09-03T09:39:14;23.90;95.50
20155;DHT22;10238;49.556;10.956;2022-09-03T09:42:05;24.10;94.70
20155;DHT22;10238;49.556;10.956;2022-09-03T09:44:56;24.30;93.40
20155;DHT22;10238;49.556;10.956;2022-09-03T09:47:46;24.50;92.80
20155;DHT22;10238;49.556;10.956;2022-09-03T09:50:36;24.60;93.80
20155;DHT22;10238;49.556;10.956;2022-09-03T09:53:26;24.50;92.40
20155;DHT22;10238;49.556;10.956;2022-09-03T09:56:21;24.70;92.60
20155;DHT22;10238;49.556;10.956;2022-09-03T09:59:13;24.80;93.90
20155;DHT22;10238;49.556;10.956;2022-09-03T10:02:08;25.30;94.70
20155;DHT22;10238;49.556;10.956;2022-09-03T10:05:17;25.60;94.80
20155;DHT22;10238;49.556;10.956;2022-09-03T10:08:18;25.70;91.90
20155;DHT22;10238;49.556;10.956;2022-09-03T10:11:09;25.70;90.80
20155;DHT22;10238;49.556;10.956;2022-09-03T10:14:00;25.30;87.70
20155;DHT22;10238;49.556;10.956;2022-09-03T10:16:57;25.30;90.60
20155;DHT22;10238;49.556;10.956;2022-09-03T10:20:03;25.80;91.80
20155;DHT22;10238;49.556;10.956;2022-09-03T10:23:21;26.10;91.90
20155;DHT22;10238;49.556;10.956;2022-09-03T10:26:17;26.30;91.80
20155;DHT22;10238;49.556;10.956;2022-09-03T10:29:20;26.50;89.30
20155;DHT22;10238;49.556;10.956;2022-09-03T10:32:24;26.90;89.00
20155;DHT22;10238;49.556;10.956;2022-09-03T10:35:29;27.00;90.10
20155;DHT22;10238;49.556;10.956;2022-09-03T10:38:27;26.90;85.90
20155;DHT22;10238;49.556;10.956;2022-09-03T10:41:31;26.70;90.40
20155;DHT22;10238;49.556;10.956;2022-09-03T10:44:51;26.80;87.40
20155;DHT22;10238;49.556;10.956;2022-09-03T10:51:24;26.90;90.20
20155;DHT22;10238;49.556;10.956;2022-09-03T10:54:31;27.00;89.70
20155;DHT22;10238;49.556;10.956;2022-09-03T10:57:40;27.00;89.50
20155;DHT22;10238;49.556;10.956;2022-09-03T11:00:44;27.10;88.60
20155;DHT22;10238;49.556;10.956;2022-09-03T11:03:43;27.30;88.50
20155;DHT22;10238;49.556;10.956;2022-09-03T11:06:40;27.50;86.30
20155;DHT22;10238;49.556;10.956;2022-09-03T11:09:38;27.60;85.20
20155;DHT22;10238;49.556;10.956;2022-09-03T11:12:35;27.10;86.20
20155;DHT22;10238;49.556;10.956;2022-09-03T11:15:32;27.20;88.90
20155;DHT22;10238;49.556;10.956;2022-09-03T11:18:28;27.30;87.50
20155;DHT22;10238;49.556;10.956;2022-09-03T11:21:24;27.40;87.30
20155;DHT22;10238;49.556;10.956;2022-09-03T11:24:20;27.50;87.60
20155;DHT22;10238;49.556;10.956;2022-09-03T11:27:22;27.30;85.00
20155;DHT22;10238;49.556;10.956;2022-09-03T11:30:23;27.20;87.10
20155;DHT22;10238;49.556;10.956;2022-09-03T11:33:20;27.20;88.50
20155;DHT22;10238;49.556;10.956;2022-09-03T11:36:12;27.50;86.50
20155;DHT22;10238;49.556;10.956;2022-09-03T11:39:19;27.60;87.40
20155;DHT22;10238;49.556;10.956;2022-09-03T11:42:30;27.90;90.00
20155;DHT22;10238;49.556;10.956;2022-09-03T11:45:32;27.90;87.70
20155;DHT22;10238;49.556;10.956;2022-09-03T11:48:33;28.10;86.20
20155;DHT22;10238;49.556;10.956;2022-09-03T11:51:32;28.40;86.80
20155;DHT22;10238;49.556;10.956;2022-09-03T11:54:25;28.30;86.80
20155;DHT22;10238;49.556;10.956;2022-09-03T11:57:22;28.30;89.50
20155;DHT22;10238;49.556;10.956;2022-09-03T12:00:18;28.80;85.00
20155;DHT22;10238;49.556;10.956;2022-09-03T12:03:13;29.10;85.70
20155;DHT22;10238;49.556;10.956;2022-09-03T12:06:28;29.40;85.20
20155;DHT22;10238;49.556;10.956;2022-09-03T12:09:56;29.50;85.80
20155;DHT22;10238;49.556;10.956;2022-09-03T12:13:04;29.50;84.90
20155;DHT22;10238;49.556;10.956;2022-09-03T12:16:37;29.90;83.70
20155;DHT22;10238;49.556;10.956;2022-09-03T12:19:41;29.90;86.60
20155;DHT22;10238;49.556;10.956;2022-09-03T12:22:40;29.90;82.20
20155;DHT22;10238;49.556;10.956;2022-09-03T12:34:13;30.10;83.90
20155;DHT22;10238;49.556;10.956;2022-09-03T12:37:18;30.00;82.30
20155;DHT22;10238;49.556;10.956;2022-09-03T12:40:30;30.10;83.70
20155;DHT22;10238;49.556;10.956;2022-09-03T12:43:26;30.20;83.80
20155;DHT22;10238;49.556;10.956;2022-09-03T12:46:36;30.20;81.80
20155;DHT22;10238;49.556;10.956;2022-09-03T12:49:33;29.90;83.00
20155;DHT22;10238;49.556;10.956;2022-09-03T12:52:27;29.60;83.70
20155;DHT22;10238;49.556;10.956;2022-09-03T12:55:33;29.40;83.50
20155;DHT22;10238;49.556;10.956;2022-09-03T12:58:31;29.20;84.20
20155;DHT22;10238;49.556;10.956;2022-09-03T13:01:27;28.90;82.90
20155;DHT22;10238;49.556;10.956;2022-09-03T13:04:24;28.40;83.70
20155;DHT22;10238;49.556;10.956;2022-09-03T13:07:26;28.10;85.40
20155;DHT22;10238;49.556;10.956;2022-09-03T13:10:24;28.10;87.80
20155;DHT22;10238;49.556;10.956;2022-09-03T13:13:21;28.10;84.60
20155;DHT22;10238;49.556;10.956;2022-09-03T13:16:47;28.20;89.10
20155;DHT22;10238;49.556;10.956;2022-09-03T13:20:10;28.10;85.90
20155;DHT22;10238;49.556;10.956;2022-09-03T13:27:03;27.80;87.80
20155;DHT22;10238;49.556;10.956;2022-09-03T13:30:04;27.60;86.10
20155;DHT22;10238;49.556;10.956;2022-09-03T13:33:01;27.60;86.70
20155;DHT22;10238;49.556;10.956;2022-09-03T13:36:01;27.60;87.70
20155;DHT22;10238;49.556;10.956;2022-09-03T13:38:59;27.50;87.20
20155;DHT22;10238;49.556;10.956;2022-09-03T13:41:56;27.50;89.80
20155;DHT22;10238;49.556;10.956;2022-09-03T13:44:56;27.50;87.10
20155;DHT22;10238;49.556;10.956;2022-09-03T13:47:57;27.50;87.30
20155;DHT22;10238;49.556;10.956;2022-09-03T13:51:17;27.50;89.50
20155;DHT22;10238;49.556;10.956;2022-09-03T13:54:14;27.60;89.70
20155;DHT22;10238;49.556;10.956;2022-09-03T13:57:33;27.60;88.30
20155;DHT22;10238;49.556;10.956;2022-09-03T14:00:30;27.40;89.00
20155;DHT22;10238;49.556;10.956;2022-09-03T14:03:31;27.30;89.80
20155;DHT22;10238;49.556;10.956;2022-09-03T14:06:38;27.30;90.80
20155;DHT22;10238;49.556;10.956;2022-09-03T14:09:38;27.10;89.00
20155;DHT22;10238;49.556;10.956;2022-09-03T14:12:41;27.00;90.40
20155;DHT22;10238;49.556;10.956;2022-09-03T14:15:39;26.80;89.90
20155;DHT22;10238;49.556;10.956;2022-09-03T14:18:40;26.80;90.40
20155;DHT22;10238;49.556;10.956;2022-09-03T14:21:41;26.80;90.40
20155;DHT22;10238;49.556;10.956;2022-09-03T14:24:43;26.70;89.60
20155;DHT22;10238;49.556;10.956;2022-09-03T14:27:36;26.50;90.10
20155;DHT22;10238;49.556;10.956;2022-09-03T14:30:37;26.40;89.80
20155;DHT22;10238;49.556;10.956;2022-09-03T14:33:37;26.40;90.70
20155;DHT22;10238;49.556;10.956;2022-09-03T14:36:38;26.40;91.20
20155;DHT22;10238;49.556;10.956;2022-09-03T14:39:45;26.40;90.00
20155;DHT22;10238;49.556;10.956;2022-09-03T14:43:00;26.30;91.20
20155;DHT22;10238;49.556;10.956;2022-09-03T14:46:12;26.30;90.90
20155;DHT22;10238;49.556;10.956;2022-09-03T14:49:33;26.10;90.70
20155;DHT22;10238;49.556;10.956;2022-09-03T14:52:48;26.00;90.50
20155;DHT22;10238;49.556;10.956;2022-09-03T14:56:07;25.90;90.90
20155;DHT22;10238;49.556;10.956;2022-09-03T14:59:26;25.90;91.70
20155;DHT22;10238;49.556;10.956;2022-09-03T15:02:53;25.90;91.50
20155;DHT22;10238;49.556;10.956;2022-09-03T15:06:09;25.90;91.40
20155;DHT22;10238;49.556;10.956;2022-09-03T15:09:26;25.80;92.00
20155;DHT22;10238;49.556;10.956;2022-09-03T15:12:24;25.70;92.10
20155;DHT22;10238;49.556;10.956;2022-09-03T15:15:23;25.60;91.90
20155;DHT22;10238;49.556;10.956;2022-09-03T15:18:25;25.50;92.40
20155;DHT22;10238;49.556;10.956;2022-09-03T15:21:25;25.20;93.00
20155;DHT22;10238;49.556;10.956;2022-09-03T15:24:26;25.00;93.20
20155;DHT22;10238;49.556;10.956;2022-09-03T15:27:44;24.80;93.60
20155;DHT22;10238;49.556;10.956;2022-09-03T15:30:47;24.70;93.70
20155;DHT22;10238;49.556;10.956;2022-09-03T15:33:49;24.60;93.80
20155;DHT22;10238;49.556;10.956;2022-09-03T15:36:48;24.60;94.30
20155;DHT22;10238;49.556;10.956;2022-09-03T15:39:44;24.50;94.40
20155;DHT22;10238;49.556;10.956;2022-09-03T15:42:43;24.40;94.40
20155;DHT22;10238;49.556;10.956;2022-09-03T15:45:38;24.30;94.90
20155;DHT22;10238;49.556;10.956;2022-09-03T15:48:46;24.20;94.80
20155;DHT22;10238;49.556;10.956;2022-09-03T15:51:46;24.10;94.80
20155;DHT22;10238;49.556;10.956;2022-09-03T15:54:55;24.00;95.30
20155;DHT22;10238;49.556;10.956;2022-09-03T15:57:54;23.90;95.50
20155;DHT22;10238;49.556;10.956;2022-09-03T16:00:57;23.90;95.60
20155;DHT22;10238;49.556;10.956;2022-09-03T16:04:01;23.80;95.70
20155;DHT22;10238;49.556;10.956;2022-09-03T16:07:00;23.70;96.00
20155;DHT22;10238;49.556;10.956;2022-09-03T16:10:06;23.60;96.50
20155;DHT22;10238;49.556;10.956;2022-09-03T16:13:31;23.60;96.50
20155;DHT22;10238;49.556;10.956;2022-09-03T16:16:29;23.40;96.90
20155;DHT22;10238;49.556;10.956;2022-09-03T16:19:36;23.10;98.30
20155;DHT22;10238;49.556;10.956;2022-09-03T16:22:40;22.80;99.60
20155;DHT22;10238;49.556;10.956;2022-09-03T16:25:44;22.50;99.90
20155;DHT22;10238;49.556;10.956;2022-09-03T16:28:44;22.30;99.90
20155;DHT22;10238;49.556;10.956;2022-09-03T16:32:05;22.10;99.90
20155;DHT22;10238;49.556;10.956;2022-09-03T16:35:21;22.00;99.90
20155;DHT22;10238;49.556;10.956;2022-09-03T16:38:28;21.80;99.90
20155;DHT22;10238;49.556;10.956;2022-09-03T16:41:30;21.70;99.90
20155;DHT22;10238;49.556;10.956;2022-09-03T16:44:40;21.50;99.90
20155;DHT22;10238;49.556;10.956;2022-09-03T16:47:47;21.30;99.90
20155;DHT22;10238;49.556;10.956;2022-09-03T16:50:58;21.10;99.90
20155;DHT22;10238;49.556;10.956;2022-09-03T16:54:05;20.90;99.90
20155;DHT22;10238;49.556;10.956;2022-09-03T16:57:15;20.70;99.90
20155;DHT22;10238;49.556;10.956;2022-09-03T17:00:14;20.60;99.90
20155;DHT22;10238;49.556;10.956;2022-09-03T17:06:55;20.40;99.90
20155;DHT22;10238;49.556;10.956;2022-09-03T17:09:57;20.20;99.90
20155;DHT22;10238;49.556;10.956;2022-09-03T17:13:14;20.00;99.90
20155;DHT22;10238;49.556;10.956;2022-09-03T17:16:28;19.90;99.90
20155;DHT22;10238;49.556;10.956;2022-09-03T17:19:33;19.60;99.90
20155;DHT22;10238;49.556;10.956;2022-09-03T17:22:42;19.40;99.90
20155;DHT22;10238;49.556;10.956;2022-09-03T17:25:52;19.20;99.90
20155;DHT22;10238;49.556;10.956;2022-09-03T17:29:01;19.10;99.90
20155;DHT22;10238;49.556;10.956;2022-09-03T17:32:05;18.90;99.90
20155;DHT22;10238;49.556;10.956;2022-09-03T17:35:11;18.80;99.90
20155;DHT22;10238;49.556;10.956;2022-09-03T17:38:17;18.80;99.90
20155;DHT22;10238;49.556;10.956;2022-09-03T17:41:21;18.80;99.90
20155;DHT22;10238;49.556;10.956;2022-09-03T17:44:33;18.80;99.90
20155;DHT22;10238;49.556;10.956;2022-09-03T17:47:47;18.80;99.90
20155;DHT22;10238;49.556;10.956;2022-09-03T17:50:55;18.80;99.90
20155;DHT22;10238;49.556;10.956;2022-09-03T17:53:54;18.80;99.90
20155;DHT22;10238;49.556;10.956;2022-09-03T17:56:53;18.80;99.90
20155;DHT22;10238;49.556;10.956;2022-09-03T17:59:54;18.80;99.90
20155;DHT22;10238;49.556;10.956;2022-09-03T18:02:51;18.70;99.90
20155;DHT22;10238;49.556;10.956;2022-09-03T18:05:46;18.70;99.90
20155;DHT22;10238;49.556;10.956;2022-09-03T18:08:45;18.70;99.90
20155;DHT22;10238;49.556;10.956;2022-09-03T18:11:47;18.60;99.90
20155;DHT22;10238;49.556;10.956;2022-09-03T18:14:43;18.60;99.90
20155;DHT22;10238;49.556;10.956;2022-09-03T18:17:44;18.50;99.90
20155;DHT22;10238;49.556;10.956;2022-09-03T18:20:42;18.50;99.90
20155;DHT22;10238;49.556;10.956;2022-09-03T18:24:25;18.40;99.90
20155;DHT22;10238;49.556;10.956;2022-09-03T18:27:40;18.40;99.90
20155;DHT22;10238;49.556;10.956;2022-09-03T18:30:51;18.30;99.90
20155;DHT22;10238;49.556;10.956;2022-09-03T18:34:01;18.30;99.90
20155;DHT22;10238;49.556;10.956;2022-09-03T18:37:08;18.30;99.90
20155;DHT22;10238;49.556;10.956;2022-09-03T18:40:18;18.30;99.90
20155;DHT22;10238;49.556;10.956;2022-09-03T18:43:37;18.20;99.90
20155;DHT22;10238;49.556;10.956;2022-09-03T18:46:58;18.20;99.90
20155;DHT22;10238;49.556;10.956;2022-09-03T18:50:42;18.10;99.90
20155;DHT22;10238;49.556;10.956;2022-09-03T18:54:01;18.10;99.90